Ride Results

Tom Quilty Gold Cup (06-06-2015)
Ride distance: 160.0 km

Outcomes - Tom Quilty Gold Cup (06-06-2015)
Division No. of Entries Retired / DNE Completed Withdrawn Ineligible V/O Percentage Completed
HW 73 - 40 3 - 30 54.79%
MW 156 - 92 6 2 56 58.97%
LW 91 - 66 3 - 22 72.53%
JN 22 - 17 - - 5 77.27%
Totals 342 - 215 12 2 113 62.87%
Results - Tom Quilty Gold Cup (06-06-2015)
Leg Leg Length Departure Time Arrival Time Vet Time Recovery Total Recovery HR Leg Time Total Leg Time Leg Speed Avg Speed Leg Pos Time behind Leader
Heavyweight
Rider no: 307 Rider: Daniel Williams Horse: Edenfels Pegasus State / Country: QLD/AUS Final place: 1
P/R 0.0 - - -     34            
1 40.0 - 2:46:00 2:51:02 00:05:02 00:05:02 55 02:51:02 02:51:02 14.0 14.0 6 00:10:47
2 35.0 3:41:02 5:57:38 6:04:39 00:07:01 00:12:03 56 02:23:37 05:14:39 14.6 14.3 2 00:08:20
3 39.0 6:54:39 9:54:50 10:04:07 00:09:17 00:21:20 52 03:09:28 08:24:07 12.4 13.6 3 00:27:49
4 34.0 11:04:07 13:28:36 13:39:34 00:10:58 00:32:18 54 02:35:27 10:59:34 13.1 13.5 1 00:00:00
5 12.0 14:19:34 15:02:00 15:12:02 Avg: 00:08:04   60 00:42:26 11:42:00 17.0 13.7 1 00:00:00
Rider no: 10 Rider: Mark Johnson Horse: Sharahd Narang State / Country: NSW/AUS Final place: 2 (BC)
P/R 0.0 - - -     40            
1 40.0 - 2:53:33 2:58:27 00:04:54 00:04:54 48 02:58:27 02:58:27 13.4 13.4 11 00:18:12
2 35.0 3:48:27 6:20:30 6:26:24 00:05:54 00:10:48 50 02:37:57 05:36:24 13.3 13.4 8 00:30:05
3 39.0 7:16:24 9:43:53 9:55:09 00:11:16 00:22:04 48 02:38:45 08:15:09 14.7 13.8 2 00:18:51
4 34.0 10:55:09 13:29:00 13:43:00 00:14:00 00:36:04 48 02:47:51 11:03:00 12.2 13.4 2 00:03:26
5 12.0 14:23:00 15:09:06 15:30:52 Avg: 00:09:01   52 00:46:06 11:49:06 15.6 13.5 2 00:07:06
Rider no: 145 Rider: Greg Lyon Horse: Chingford Just Dreaming State / Country: NSW/AUS Final place: 3
P/R 0.0 - - -     28            
1 40.0 - 3:02:19 3:06:01 00:03:42 00:03:42 48 03:06:01 03:06:01 12.9 12.9 23 00:25:46
2 35.0 3:56:01 6:20:49 6:27:42 00:06:53 00:10:35 50 02:31:41 05:37:42 13.8 13.3 9 00:31:23
3 39.0 7:17:42 9:56:55 10:05:13 00:08:18 00:18:53 56 02:47:31 08:25:13 14.0 13.5 4 00:28:55
4 34.0 11:05:13 14:05:17 14:17:05 00:11:48 00:30:41 56 03:11:52 11:37:05 10.6 12.7 3 00:37:31
5 12.0 14:57:05 15:58:06 16:10:04 Avg: 00:07:40   56 01:01:01 12:38:06 11.8 12.7 3 00:56:06
Rider no: 70 Rider: Andrew Bailey Horse: Bullio Solute State / Country: NSW/AUS Final place: 4
P/R 0.0 - - -     32            
1 40.0 - 2:47:00 2:52:17 00:05:17 00:05:17 52 02:52:17 02:52:17 13.9 13.9 8 00:12:02
2 35.0 3:42:17 6:15:38 6:19:30 00:03:52 00:09:09 52 02:37:13 05:29:30 13.4 13.7 6 00:23:11
3 39.0 7:09:30 10:25:19 10:29:18 00:03:59 00:13:08 56 03:19:48 08:49:18 11.7 12.9 12 00:53:00
4 34.0 11:29:18 14:37:09 14:41:59 00:04:50 00:17:58 52 03:12:41 12:01:59 10.6 12.3 8 01:02:25
5 12.0 15:21:59 16:09:54 16:25:20 Avg: 00:04:29   60 00:47:55 12:49:54 15.0 12.5 4 01:07:54
Rider no: 417 Rider: Matthew Gadsby Horse: Ra Silver Dancer State / Country: QLD/AUS Final place: 5
P/R 0.0 - - -     40            
1 40.0 - 2:58:57 3:05:22 00:06:25 00:06:25 58 03:05:22 03:05:22 12.9 12.9 21 00:25:07
2 35.0 3:55:22 6:29:30 6:36:20 00:06:50 00:13:15 48 02:40:58 05:46:20 13.0 13.0 18 00:40:01
3 39.0 7:26:20 10:14:12 10:23:12 00:09:00 00:22:15 48 02:56:52 08:43:12 13.2 13.1 9 00:46:54
4 34.0 11:23:12 14:31:48 14:41:26 00:09:38 00:31:53 41 03:18:14 12:01:26 10.3 12.3 7 01:01:52
5 12.0 15:21:26 16:09:55 16:22:31 Avg: 00:07:58   56 00:48:29 12:49:55 14.9 12.5 5 01:07:55
Rider no: 310 Rider: Ron Haigh Horse: Bacchante Dreamworks State / Country: NSW/AUS Final place: 6
P/R 0.0 - - -     36            
1 40.0 - 2:39:41 2:47:14 00:07:33 00:07:33 56 02:47:14 02:47:14 14.4 14.4 4 00:06:59
2 35.0 3:37:14 5:47:58 5:56:19 00:08:21 00:15:54 50 02:19:05 05:06:19 15.1 14.7 1 00:00:00
3 39.0 6:46:19 9:25:51 9:36:18 00:10:27 00:26:21 56 02:49:59 07:56:18 13.8 14.4 1 00:00:00
4 34.0 10:36:18 14:20:20 14:27:58 00:07:38 00:33:59 48 03:51:40 11:47:58 8.8 12.5 4 00:48:24
5 12.0 15:07:58 16:14:07 16:23:49 Avg: 00:08:29   48 01:06:09 12:54:07 10.9 12.4 6 01:12:07
Rider no: 238 Rider: Rod Field Horse: Brookleigh Louise State / Country: QLD/AUS Final place: 7
P/R 0.0 - - -     32            
1 40.0 - 2:46:06 2:52:52 00:06:46 00:06:46 56 02:52:52 02:52:52 13.9 13.9 9 00:12:37
2 35.0 3:42:52 5:57:48 6:07:37 00:09:49 00:16:35 56 02:24:45 05:17:37 14.5 14.2 3 00:11:18
3 39.0 6:57:37 9:56:50 10:09:10 00:12:20 00:28:55 58 03:11:33 08:29:10 12.2 13.4 5 00:32:52
4 34.0 11:09:10 14:27:37 14:37:03 00:09:26 00:38:21 48 03:27:53 11:57:03 9.8 12.4 5 00:57:29
5 12.0 15:17:03 16:21:13 16:32:30 Avg: 00:09:35   56 01:04:10 13:01:13 11.2 12.3 7 01:19:13
Rider no: 411 Rider: Sarah Kelly Horse: Littlebanks Storm State / Country: ACT/AUS Final place: 8
P/R 0.0 - - -     34            
1 40.0 - 2:59:00 3:04:13 00:05:13 00:05:13 52 03:04:13 03:04:13 13.0 13.0 17 00:23:58
2 35.0 3:54:13 6:16:31 6:29:14 00:12:43 00:17:56 52 02:35:01 05:39:14 13.5 13.3 10 00:32:55
3 39.0 7:19:14 10:05:45 10:11:35 00:05:50 00:23:46 52 02:52:21 08:31:35 13.6 13.4 6 00:35:17
4 34.0 11:11:35 14:28:59 14:39:37 00:10:38 00:34:24 52 03:28:02 11:59:37 9.8 12.3 6 01:00:03
5 12.0 15:19:37 16:28:40 16:38:42 Avg: 00:08:36   52 01:09:03 13:08:40 10.4 12.2 8 01:26:40
Rider no: 131 Rider: Robert Catlin Horse: Copperkahn Tiara State / Country: NSW/AUS Final place: 9
P/R 0.0 - - -     36            
1 40.0 - 2:38:38 2:48:13 00:09:35 00:09:35 48 02:48:13 02:48:13 14.3 14.3 5 00:07:58
2 35.0 3:38:13 6:26:22 6:32:16 00:05:54 00:15:29 48 02:54:03 05:42:16 12.1 13.1 11 00:35:57
3 39.0 7:22:16 10:29:52 10:37:03 00:07:11 00:22:40 48 03:14:47 08:57:03 12.0 12.7 16 01:00:45
4 34.0 11:37:03 15:27:56 15:35:21 00:07:25 00:30:05 44 03:58:18 12:55:21 8.6 11.5 10 01:55:47
5 12.0 16:15:21 17:35:47 17:45:08 Avg: 00:07:31   50 01:20:26 14:15:47 9.0 11.2 9 02:33:47
Rider no: 312 Rider: Maurice Gray Horse: Longrun Ambrose State / Country: QLD/AUS Final place: 10
P/R 0.0 - - -     36            
1 40.0 - 2:56:06 3:04:28 00:08:22 00:08:22 54 03:04:28 03:04:28 13.0 13.0 18 00:24:13
2 35.0 3:54:28 6:28:38 6:34:40 00:06:02 00:14:24 56 02:40:12 05:44:40 13.1 13.1 13 00:38:21
3 39.0 7:24:40 10:30:53 10:39:43 00:08:50 00:23:14 48 03:15:03 08:59:43 12.0 12.7 17 01:03:25
4 34.0 11:39:43 15:32:37 15:38:32 00:05:55 00:29:09 52 03:58:49 12:58:32 8.5 11.4 11 01:58:58
5 12.0 16:18:32 17:39:31 17:48:50 Avg: 00:07:17   46 01:20:59 14:19:31 8.9 11.2 10 02:37:31
Rider no: 175 Rider: Tracy Hofstrand Horse: Dumaresq Jackson State / Country:  /USA Final place: 11
P/R 0.0 - - -     36            
1 40.0 - 2:54:11 3:01:37 00:07:26 00:07:26 44 03:01:37 03:01:37 13.2 13.2 15 00:21:22
2 35.0 3:51:37 6:26:11 6:35:55 00:09:44 00:17:10 52 02:44:18 05:45:55 12.8 13.0 16 00:39:36
3 39.0 7:25:55 10:25:25 10:36:55 00:11:30 00:28:40 56 03:11:00 08:56:55 12.3 12.7 15 01:00:37
4 34.0 11:36:55 15:34:36 15:48:20 00:13:44 00:42:24 56 04:11:25 13:08:20 8.1 11.3 13 02:08:46
5 12.0 16:28:20 17:46:46 18:05:48 Avg: 00:10:36   50 01:18:26 14:26:46 9.2 11.1 11 02:44:46
Rider no: 34 Rider: Alan Mackinder Horse: Jezabelle Sweet Dreams State / Country: NSW/AUS Final place: 12
P/R 0.0 - - -     34            
1 40.0 - 2:51:56 3:01:02 00:09:06 00:09:06 52 03:01:02 03:01:02 13.3 13.3 12 00:20:47
2 35.0 3:51:02 6:29:20 6:35:42 00:06:22 00:15:28 52 02:44:40 05:45:42 12.8 13.0 14 00:39:23
3 39.0 7:25:42 10:54:48 11:03:55 00:09:07 00:24:35 50 03:38:13 09:23:55 10.7 12.1 18 01:27:37
4 34.0 12:03:55 15:32:49 15:42:40 00:09:51 00:34:26 48 03:38:45 13:02:40 9.3 11.3 12 02:03:06
5 12.0 16:22:40 17:52:35 18:07:03 Avg: 00:08:36   46 01:29:55 14:32:35 8.0 11.0 12 02:50:35
Rider no: 434 Rider: Wayne Johnson Horse: Desert Duelers Con State / Country: NSW/AUS Final place: 13
P/R 0.0 - - -     36            
1 40.0 - 2:29:21 2:41:58 00:12:37 00:12:37 52 02:41:58 02:41:58 14.8 14.8 2 00:01:43
2 35.0 3:31:58 6:55:59 7:06:19 00:10:20 00:22:57 56 03:34:21 06:16:19 9.8 12.0 24 01:10:00
3 39.0 7:56:19 11:13:04 11:22:38 00:09:34 00:32:31 52 03:26:19 09:42:38 11.3 11.7 21 01:46:20
4 34.0 12:22:38 16:08:00 16:16:35 00:08:35 00:41:06 53 03:53:57 13:36:35 8.7 10.9 16 02:37:01
5 12.0 16:56:35 18:17:27 18:23:30 Avg: 00:10:16   56 01:20:52 14:57:27 8.9 10.7 14 03:15:27
Rider no: 13 Rider: Barry Akers Horse: Norfolk Park Comet State / Country: QLD/AUS Final place: 14
P/R 0.0 - - -     36            
1 40.0 - 3:46:38 3:57:40 00:11:02 00:11:02 44 03:57:40 03:57:40 10.1 10.1 56 01:17:25
2 35.0 4:47:40 6:26:29 6:38:18 00:11:49 00:22:51 48 01:50:38 05:48:18 19.0 12.9 19 00:41:59
3 39.0 7:28:18 10:56:34 11:16:23 00:19:49 00:42:40 48 03:48:05 09:36:23 10.3 11.9 19 01:40:05
4 34.0 12:16:23 16:16:06 16:31:08 00:15:02 00:57:42 48 04:14:45 13:51:08 8.0 10.7 18 02:51:34
5 12.0 17:11:08 18:45:44 18:54:12 Avg: 00:14:25   48 01:34:36 15:25:44 7.6 10.4 15 03:43:44
Rider no: 350 Rider: Mark Nimon Horse: Abbeywood Roxanne State / Country: QLD/AUS Final place: 15
P/R 0.0 - - -     40            
1 40.0 - 3:30:27 3:34:19 00:03:52 00:03:52 56 03:34:19 03:34:19 11.2 11.2 39 00:54:04
2 35.0 4:24:19 7:25:08 7:31:00 00:05:52 00:09:44 52 03:06:41 06:41:00 11.2 11.2 28 01:34:41
3 39.0 8:21:00 11:54:06 12:01:16 00:07:10 00:16:54 48 03:40:16 10:21:16 10.6 11.0 25 02:24:58
4 34.0 13:01:16 16:52:21 16:58:00 00:05:39 00:22:33 55 03:56:44 14:18:00 8.6 10.3 19 03:18:26
5 12.0 17:38:00 18:59:13 19:08:35 Avg: 00:05:38   52 01:21:13 15:39:13 8.9 10.2 16 03:57:13
Rider no: 178 Rider: Stuart Lymbery Horse: Garonne Park Walker State / Country: NSW/AUS Final place: 16
P/R 0.0 - - -     35            
1 40.0 - 3:30:22 3:35:50 00:05:28 00:05:28 50 03:35:50 03:35:50 11.1 11.1 42 00:55:35
2 35.0 4:25:50 7:32:12 7:40:36 00:08:24 00:13:52 56 03:14:46 06:50:36 10.8 11.0 35 01:44:17
3 39.0 8:30:36 12:16:05 12:27:00 00:10:55 00:24:47 54 03:56:24 10:47:00 9.9 10.6 29 02:50:42
4 34.0 13:27:00 17:20:21 17:24:27 00:04:06 00:28:53 60 03:57:27 14:44:27 8.6 10.0 20 03:44:53
5 12.0 18:04:27 19:40:00 19:44:29 Avg: 00:07:13   54 01:35:33 16:20:00 7.5 9.8 17 04:38:00
Rider no: 324 Rider: Heidi Wade Horse: Pevensey Prosecco State / Country: NSW/AUS Final place: 17
P/R 0.0 - - -     40            
1 40.0 - 2:53:46 3:06:01 00:12:15 00:12:15 52 03:06:01 03:06:01 12.9 12.9 23 00:25:46
2 35.0 3:56:01 7:07:39 7:19:50 00:12:11 00:24:26 50 03:23:49 06:29:50 10.3 11.5 26 01:23:31
3 39.0 8:09:50 11:54:36 12:05:35 00:10:59 00:35:25 52 03:55:45 10:25:35 9.9 10.9 26 02:29:17
4 34.0 13:05:35 17:20:48 17:31:15 00:10:27 00:45:52 56 04:25:40 14:51:15 7.7 10.0 21 03:51:41
5 12.0 18:11:15 19:53:48 20:06:38 Avg: 00:11:28   56 01:42:33 16:33:48 7.0 9.7 18 04:51:48
Rider no: 502 Rider: Gary Pevy Horse: Halimas Esdikarn State / Country: NSW/AUS Final place: 18
P/R 0.0 - - -     32            
1 40.0 - 3:16:44 3:26:21 00:09:37 00:09:37 48 03:26:21 03:26:21 11.6 11.6 34 00:46:06
2 35.0 4:16:21 7:28:09 7:38:40 00:10:31 00:20:08 44 03:22:19 06:48:40 10.4 11.0 32 01:42:21
3 39.0 8:28:40 12:02:15 12:09:52 00:07:37 00:27:45 52 03:41:12 10:29:52 10.6 10.9 27 02:33:34
4 34.0 13:09:52 17:32:13 17:41:35 00:09:22 00:37:07 48 04:31:43 15:01:35 7.5 9.8 22 04:02:01
5 12.0 18:21:35 20:20:40 20:25:52 Avg: 00:09:16   46 01:59:05 17:00:40 6.0 9.4 20 05:18:40
Rider no: 126 Rider: Phil Coleman Horse: Rainbows Reach Dark N Stormy State / Country: NSW/AUS Final place: 19
P/R 0.0 - - -     42            
1 40.0 - 3:37:40 3:48:48 00:11:08 00:11:08 58 03:48:48 03:48:48 10.5 10.5 52 01:08:33
2 35.0 4:38:48 7:53:57 8:01:56 00:07:59 00:19:07 60 03:23:08 07:11:56 10.3 10.4 41 02:05:37
3 39.0 8:51:56 12:57:10 13:06:55 00:09:45 00:28:52 48 04:14:59 11:26:55 9.2 10.0 35 03:30:37
4 34.0 14:06:55 18:25:56 18:33:05 00:07:09 00:36:01 56 04:26:10 15:53:05 7.7 9.3 27 04:53:31
5 12.0 19:13:05 20:50:36 20:57:32 Avg: 00:09:00   48 01:37:31 17:30:36 7.4 9.1 21 05:48:36
Rider no: 198 Rider: Kathryn Priol Horse: Kalkadoon Lucifer State / Country: NSW/AUS Final place: 20
P/R 0.0 - - -     46            
1 40.0 - 3:19:26 3:28:22 00:08:56 00:08:56 48 03:28:22 03:28:22 11.5 11.5 35 00:48:07
2 35.0 4:18:22 7:31:54 7:39:11 00:07:17 00:16:13 50 03:20:49 06:49:11 10.5 11.0 34 01:42:52
3 39.0 8:29:11 12:14:30 12:22:49 00:08:19 00:24:32 56 03:53:38 10:42:49 10.0 10.6 28 02:46:31
4 34.0 13:22:49 18:20:27 18:28:08 00:07:41 00:32:13 48 05:05:19 15:48:08 6.7 9.4 24 04:48:34
5 12.0 19:08:08 20:55:41 21:03:40 Avg: 00:08:03   58 01:47:33 17:35:41 6.7 9.1 22 05:53:41
Rider no: 210 Rider: Jody Smith Horse: Tarjo Ace of Hearts State / Country: SA/AUS Final place: 21
P/R 0.0 - - -     32            
1 40.0 - 3:37:20 3:50:28 00:13:08 00:13:08 52 03:50:28 03:50:28 10.4 10.4 53 01:10:13
2 35.0 4:40:28 8:09:44 8:20:32 00:10:48 00:23:56 52 03:40:04 07:30:32 9.5 10.0 50 02:24:13
3 39.0 9:10:32 13:24:48 13:36:40 00:11:52 00:35:48 52 04:26:08 11:56:40 8.8 9.5 43 04:00:22
4 34.0 14:36:40 18:50:58 18:56:54 00:05:56 00:41:44 52 04:20:14 16:16:54 7.8 9.1 31 05:17:20
5 12.0 19:36:54 21:03:55 21:12:27 Avg: 00:10:26   52 01:27:01 17:43:55 8.3 9.0 23 06:01:55
Rider no: 209 Rider: Tarrant Smith Horse: Castlebar Temeraire State / Country: SA/AUS Final place: 21
P/R 0.0 - - -     54            
1 40.0 - 3:37:22 3:50:30 00:13:08 00:13:08 52 03:50:30 03:50:30 10.4 10.4 54 01:10:15
2 35.0 4:40:30 8:09:42 8:20:27 00:10:45 00:23:53 48 03:39:57 07:30:27 9.5 10.0 49 02:24:08
3 39.0 9:10:27 13:24:46 13:36:40 00:11:54 00:35:47 48 04:26:13 11:56:40 8.8 9.5 43 04:00:22
4 34.0 14:36:40 18:50:55 18:56:34 00:05:39 00:41:26 48 04:19:54 16:16:34 7.8 9.1 30 05:17:00
5 12.0 19:36:34 21:03:55 21:12:35 Avg: 00:10:21   52 01:27:21 17:43:55 8.2 9.0 23 06:01:55
Rider no: 337 Rider: Tami Parnell Horse: Cherox Kenya State / Country: NSW/AUS Final place: 23
P/R 0.0 - - -     38            
1 40.0 - 3:22:15 3:25:22 00:03:07 00:03:07 48 03:25:22 03:25:22 11.7 11.7 33 00:45:07
2 35.0 4:15:22 7:19:06 7:25:26 00:06:20 00:09:27 48 03:10:04 06:35:26 11.0 11.4 27 01:29:07
3 39.0 8:15:26 12:27:31 12:32:30 00:04:59 00:14:26 48 04:17:04 10:52:30 9.1 10.5 30 02:56:12
4 34.0 13:32:30 18:25:37 18:28:59 00:03:22 00:17:48 48 04:56:29 15:48:59 6.9 9.4 25 04:49:25
5 12.0 19:08:59 21:04:19 21:08:32 Avg: 00:04:27   52 01:55:20 17:44:19 6.2 9.0 25 06:02:19
Rider no: 201 Rider: Susan Luthy Horse: Mystical Knight State / Country: NSW/AUS Final place: 24
P/R 0.0 - - -     36            
1 40.0 - 3:17:58 3:25:15 00:07:17 00:07:17 56 03:25:15 03:25:15 11.7 11.7 32 00:45:00
2 35.0 4:15:15 7:52:07 7:59:41 00:07:34 00:14:51 48 03:44:26 07:09:41 9.4 10.5 39 02:03:22
3 39.0 8:49:41 12:58:12 13:12:55 00:14:43 00:29:34 56 04:23:14 11:32:55 8.9 9.9 36 03:36:37
4 34.0 14:12:55 18:33:47 18:45:50 00:12:03 00:41:37 48 04:32:55 16:05:50 7.5 9.2 28 05:06:16
5 12.0 19:25:50 21:17:32 21:28:49 Avg: 00:10:24   48 01:51:42 17:57:32 6.4 8.9 26 06:15:32
Rider no: 338 Rider: Gerard Bou Horse: Moomba Lodge Bayley State / Country: QLD/AUS Final place: 25
P/R 0.0 - - -     36            
1 40.0 - 3:13:10 3:22:17 00:09:07 00:09:07 56 03:22:17 03:22:17 11.9 11.9 31 00:42:02
2 35.0 4:12:17 7:50:10 7:53:46 00:03:36 00:12:43 56 03:41:29 07:03:46 9.5 10.6 37 01:57:27
3 39.0 8:43:46 12:54:37 13:00:09 00:05:32 00:18:15 56 04:16:23 11:20:09 9.1 10.1 33 03:23:51
4 34.0 14:00:09 18:25:00 18:31:55 00:06:55 00:25:10 48 04:31:46 15:51:55 7.5 9.3 26 04:52:21
5 12.0 19:11:55 21:28:39 21:33:03 Avg: 00:06:17   50 02:16:44 18:08:39 5.3 8.8 27 06:26:39
Rider no: 134 Rider: Matthias Lochthofen Horse: Honey State / Country: QLD/AUS Final place: 26
P/R 0.0 - - -     40            
1 40.0 - 3:24:38 3:32:07 00:07:29 00:07:29 50 03:32:07 03:32:07 11.3 11.3 37 00:51:52
2 35.0 4:22:07 7:36:15 7:45:23 00:09:08 00:16:37 52 03:23:16 06:55:23 10.3 10.8 36 01:49:04
3 39.0 8:35:23 12:49:38 12:57:02 00:07:24 00:24:01 52 04:21:39 11:17:02 8.9 10.1 32 03:20:44
4 34.0 13:57:02 18:54:21 18:58:08 00:03:47 00:27:48 44 05:01:06 16:18:08 6.8 9.1 32 05:18:34
5 12.0 19:38:08 21:29:47 21:36:31 Avg: 00:06:57   48 01:51:39 18:09:47 6.4 8.8 28 06:27:47
Rider no: 218 Rider: Paul Sidio Horse: Gray-Gun Vanharlen State / Country:  /USA Final place: 27
P/R 0.0 - - -     34            
1 40.0 - 3:28:01 3:35:11 00:07:10 00:07:10 52 03:35:11 03:35:11 11.2 11.2 41 00:54:56
2 35.0 4:25:11 7:53:35 8:03:19 00:09:44 00:16:54 40 03:38:08 07:13:19 9.6 10.4 43 02:07:00
3 39.0 8:53:19 13:19:48 13:30:47 00:10:59 00:27:53 40 04:37:28 11:50:47 8.4 9.6 41 03:54:29
4 34.0 14:30:47 18:57:40 19:09:04 00:11:24 00:39:17 48 04:38:17 16:29:04 7.3 9.0 34 05:29:30
5 12.0 19:49:04 21:32:35 21:40:11 Avg: 00:09:49   44 01:43:31 18:12:35 7.0 8.8 29 06:30:35
Rider no: 23 Rider: Troy Butler Horse: Roxborough Rivulet State / Country: QLD/AUS Final place: 28
P/R 0.0 - - -     48            
1 40.0 - 3:32:00 3:37:06 00:05:06 00:05:06 44 03:37:06 03:37:06 11.1 11.1 43 00:56:51
2 35.0 4:27:06 8:03:21 8:08:42 00:05:21 00:10:27 48 03:41:36 07:18:42 9.5 10.3 44 02:12:23
3 39.0 8:58:42 13:06:20 13:13:24 00:07:04 00:17:31 48 04:14:42 11:33:24 9.2 9.9 37 03:37:06
4 34.0 14:13:24 18:59:44 19:04:30 00:04:46 00:22:17 52 04:51:06 16:24:30 7.0 9.0 33 05:24:56
5 12.0 19:44:30 21:36:11 21:47:45 Avg: 00:05:34   48 01:51:41 18:16:11 6.4 8.8 30 06:34:11
Rider no: 77 Rider: John Dawson Horse: Jon De Le Vismad State / Country: NSW/AUS Final place: 29
P/R 0.0 - - -     32            
1 40.0 - 3:06:24 3:11:02 00:04:38 00:04:38 48 03:11:02 03:11:02 12.6 12.6 28 00:30:47
2 35.0 4:01:02 7:32:00 7:36:51 00:04:51 00:09:29 48 03:35:49 06:46:51 9.7 11.1 30 01:40:32
3 39.0 8:26:51 12:54:17 13:01:24 00:07:07 00:16:36 48 04:34:33 11:21:24 8.5 10.0 34 03:25:06
4 34.0 14:01:24 18:48:53 18:54:00 00:05:07 00:21:43 48 04:52:36 16:14:00 7.0 9.1 29 05:14:26
5 12.0 19:34:00 21:40:55 21:45:40 Avg: 00:05:25   48 02:06:55 18:20:55 5.7 8.7 31 06:38:55
Rider no: 423 Rider: Mark Lindsay Horse: Kintamani Silver Marksman State / Country: NSW/AUS Final place: 30
P/R 0.0 - - -     36            
1 40.0 - 3:54:23 4:01:23 00:07:00 00:07:00 45 04:01:23 04:01:23 9.9 9.9 57 01:21:08
2 35.0 4:51:23 8:27:12 8:33:23 00:06:11 00:13:11 52 03:42:00 07:43:23 9.5 9.7 51 02:37:04
3 39.0 9:23:23 13:33:17 13:39:10 00:05:53 00:19:04 54 04:15:47 11:59:10 9.1 9.5 45 04:02:52
4 34.0 14:39:10 19:20:55 19:26:07 00:05:12 00:24:16 52 04:46:57 16:46:07 7.1 8.8 35 05:46:33
5 12.0 20:06:07 21:57:54 22:01:11 Avg: 00:06:04   52 01:51:47 18:37:54 6.4 8.6 32 06:55:54
Rider no: 340 Rider: Shimpei Miyamoto Horse: Aloha Blue Opal State / Country:  /JPN Final place: 31
P/R 0.0 - - -     52            
1 40.0 - 4:35:51 4:40:20 00:04:29 00:04:29 52 04:40:20 04:40:20 8.6 8.6 69 02:00:05
2 35.0 5:30:20 9:02:12 9:06:43 00:04:31 00:09:00 56 03:36:23 08:16:43 9.7 9.1 57 03:10:24
3 39.0 9:56:43 13:55:22 14:02:08 00:06:46 00:15:46 51 04:05:25 12:22:08 9.5 9.2 48 04:25:50
4 34.0 15:02:08 19:36:13 19:40:07 00:03:54 00:19:40 50 04:37:59 17:00:07 7.3 8.7 37 06:00:33
5 12.0 20:20:07 21:59:52 22:03:50 Avg: 00:04:55   48 01:39:45 18:39:52 7.2 8.6 33 06:57:52
Rider no: 511 Rider: Rod Mitchell Horse: Aloha Tribal Warrior State / Country: NSW/AUS Final place: 32
P/R 0.0 - - -     30            
1 40.0 - 3:35:27 3:43:22 00:07:55 00:07:55 44 03:43:22 03:43:22 10.7 10.7 50 01:03:07
2 35.0 4:33:22 8:05:38 8:11:47 00:06:09 00:14:04 46 03:38:25 07:21:47 9.6 10.2 47 02:15:28
3 39.0 9:01:47 13:24:16 13:36:03 00:11:47 00:25:51 58 04:34:16 11:56:03 8.5 9.6 42 03:59:45
4 34.0 14:36:03 19:21:38 19:29:52 00:08:14 00:34:05 52 04:53:49 16:49:52 6.9 8.8 36 05:50:18
5 12.0 20:09:52 22:06:25 22:30:15 Avg: 00:08:31   52 01:56:33 18:46:25 6.2 8.5 34 07:04:25
Rider no: 116 Rider: Kenneth Gordon Horse: Cameo Favorita State / Country: QLD/AUS Final place: 33
P/R 0.0 - - -     28            
1 40.0 - 4:09:53 4:14:16 00:04:23 00:04:23 48 04:14:16 04:14:16 9.4 9.4 63 01:34:01
2 35.0 5:04:16 9:00:59 9:06:44 00:05:45 00:10:08 54 04:02:28 08:16:44 8.7 9.1 58 03:10:25
3 39.0 9:56:44 14:44:58 14:54:29 00:09:31 00:19:39 48 04:57:45 13:14:29 7.9 8.6 52 05:18:11
4 34.0 15:54:29 20:03:43 20:09:02 00:05:19 00:24:58 48 04:14:33 17:29:02 8.0 8.5 40 06:29:28
5 12.0 20:49:02 22:20:25 22:24:58 Avg: 00:06:14   48 01:31:23 19:00:25 7.9 8.4 35 07:18:25
Rider no: 188 Rider: Sue Warren Horse: Razorback Flash State / Country: NSW/AUS Final place: 34
P/R 0.0 - - -     40            
1 40.0 - 3:46:56 4:02:46 00:15:50 00:15:50 60 04:02:46 04:02:46 9.9 9.9 58 01:22:31
2 35.0 4:52:46 8:27:01 8:39:06 00:12:05 00:27:55 52 03:46:20 07:49:06 9.3 9.6 53 02:42:47
3 39.0 9:29:06 13:32:00 13:45:21 00:13:21 00:41:16 52 04:16:15 12:05:21 9.1 9.4 47 04:09:03
4 34.0 14:45:21 19:28:51 19:40:40 00:11:49 00:53:05 52 04:55:19 17:00:40 6.9 8.7 38 06:01:06
5 12.0 20:20:40 22:21:32 22:33:19 Avg: 00:13:16   58 02:00:52 19:01:32 6.0 8.4 36 07:19:32
Rider no: 199 Rider: Martin Gregson Horse: Burren-dah Gladiator State / Country: QLD/AUS Final place: 35
P/R 0.0 - - -     36            
1 40.0 - 3:28:44 3:37:18 00:08:34 00:08:34 44 03:37:18 03:37:18 11.0 11.0 44 00:57:03
2 35.0 4:27:18 8:01:46 8:09:51 00:08:05 00:16:39 52 03:42:33 07:19:51 9.4 10.2 45 02:13:32
3 39.0 8:59:51 14:02:08 14:11:00 00:08:52 00:25:31 52 05:11:09 12:31:00 7.5 9.1 49 04:34:42
4 34.0 15:11:00 19:58:41 20:07:45 00:09:04 00:34:35 48 04:56:45 17:27:45 6.9 8.5 39 06:28:11
5 12.0 20:47:45 22:37:25 22:43:35 Avg: 00:08:38   48 01:49:40 19:17:25 6.6 8.3 37 07:35:25
Rider no: 333 Rider: John Howe Horse: Ashbend Perazzi State / Country: NSW/AUS Final place: 36
P/R 0.0 - - -     60            
1 40.0 - 4:10:26 4:16:49 00:06:23 00:06:23 46 04:16:49 04:16:49 9.3 9.3 64 01:36:34
2 35.0 5:06:49 8:36:58 8:44:09 00:07:11 00:13:34 52 03:37:20 07:54:09 9.7 9.5 54 02:47:50
3 39.0 9:34:09 14:32:10 14:43:55 00:11:45 00:25:19 52 05:09:46 13:03:55 7.6 8.7 51 05:07:37
4 34.0 15:43:55 20:17:03 20:28:26 00:11:23 00:36:42 60 04:44:31 17:48:26 7.2 8.3 41 06:48:52
5 12.0 21:08:26 22:58:27 23:15:05 Avg: 00:09:10   56 01:50:01 19:38:27 6.5 8.1 38 07:56:27
Rider no: 335 Rider: Gavin Bartlett Horse: Longrun Drifter State / Country: QLD/AUS Final place: 37
P/R 0.0 - - -     36            
1 40.0 - 4:35:50 4:46:13 00:10:23 00:10:23 48 04:46:13 04:46:13 8.4 8.4 71 02:05:58
2 35.0 5:36:13 9:08:10 9:19:18 00:11:08 00:21:31 48 03:43:05 08:29:18 9.4 8.8 62 03:22:59
3 39.0 10:09:18 14:24:36 14:37:54 00:13:18 00:34:49 44 04:28:36 12:57:54 8.7 8.8 50 05:01:36
4 34.0 15:37:54 20:32:05 20:42:00 00:09:55 00:44:44 48 05:04:06 18:02:00 6.7 8.2 42 07:02:26
5 12.0 21:22:00 23:06:40 23:30:50 Avg: 00:11:11   48 01:44:40 19:46:40 6.9 8.1 39 08:04:40
Rider no: 300 Rider: Rob Vlaanderen Horse: Castlebar Djara State / Country: SA/AUS Final place: 38
P/R 0.0 - - -     28            
1 40.0 - 4:07:55 4:17:32 00:09:37 00:09:37 48 04:17:32 04:17:32 9.3 9.3 67 01:37:17
2 35.0 5:07:32 8:59:15 9:12:19 00:13:04 00:22:41 52 04:04:47 08:22:19 8.6 9.0 60 03:16:00
3 39.0 10:02:19 15:06:19 15:19:04 00:12:45 00:35:26 52 05:16:45 13:39:04 7.4 8.4 55 05:42:46
4 34.0 16:19:04 20:56:34 21:03:50 00:07:16 00:42:42 56 04:44:46 18:23:50 7.2 8.0 44 07:24:16
5 12.0 21:43:50 23:34:30 23:43:56 Avg: 00:10:40   48 01:50:40 20:14:30 6.5 7.9 40 08:32:30
Rider no: 38 Rider: Debra Ryan Horse: Follydown Gai Emerald State / Country: WA/AUS Final place: 39
P/R 0.0 - - -     33            
1 40.0 - 4:05:40 4:13:20 00:07:40 00:07:40 42 04:13:20 04:13:20 9.5 9.5 62 01:33:05
2 35.0 5:03:20 9:07:05 9:13:11 00:06:06 00:13:46 48 04:09:51 08:23:11 8.4 8.9 61 03:16:52
3 39.0 10:03:11 15:02:30 15:13:24 00:10:54 00:24:40 48 05:10:13 13:33:24 7.5 8.4 54 05:37:06
4 34.0 16:13:24 20:46:48 20:53:18 00:06:30 00:31:10 45 04:39:54 18:13:18 7.3 8.1 43 07:13:44
5 12.0 21:33:18 23:40:30 23:40:30 Avg: 00:07:47   48 02:07:12 20:20:30 5.7 7.9 41 08:38:30
Rider no: 162 Rider: Paddy Smith Horse: Akifa Farras Shamah State / Country: NSW/AUS Final place: 40
P/R 0.0 - - -     48            
1 40.0 - 4:35:52 4:42:19 00:06:27 00:06:27 44 04:42:19 04:42:19 8.5 8.5 70 02:02:04
2 35.0 5:32:19 9:34:00 9:43:12 00:09:12 00:15:39 60 04:10:53 08:53:12 8.4 8.4 63 03:46:53
3 39.0 10:33:12 15:27:58 15:36:29 00:08:31 00:24:10 54 05:03:17 13:56:29 7.7 8.2 57 06:00:11
4 34.0 16:36:29 21:02:55 21:12:00 00:09:05 00:33:15 60 04:35:31 18:32:00 7.4 8.0 45 07:32:26
5 12.0 21:52:00 23:50:42 0:02:00 Avg: 00:08:18   52 01:58:42 20:30:42 6.1 7.8 42 08:48:42
Rider no: 208 Rider: Robert Walsh Horse: Free Spirit Czar State / Country: TAS/AUS Lame L5
P/R 0.0 - - -     37            
1 40.0 - 2:31:09 2:40:15 00:09:06 00:09:06 53 02:40:15 02:40:15 15.0 15.0 1 00:00:00
2 35.0 3:30:15 5:56:16 6:08:27 00:12:11 00:21:17 50 02:38:12 05:18:27 13.3 14.1 4 00:12:08
3 39.0 6:58:27 10:07:05 10:19:18 00:12:13 00:33:30 56 03:20:51 08:39:18 11.7 13.2 8 00:43:00
4 34.0 11:19:18 15:51:43 15:56:13 00:04:30 00:38:00 50 04:36:55 13:16:13 7.4 11.2 15 02:16:39
5 12.0 16:36:13 18:16:36 18:22:29 Avg: 00:09:30   52 01:40:23 14:56:36 7.2 10.7 13 03:14:36
Rider no: 40 Rider: Steve Broadbent Horse: Glendhu Moonshine State / Country: NSW/AUS Lame L5
P/R 0.0 - - -     40            
1 40.0 - 3:35:58 3:41:56 00:05:58 00:05:58 56 03:41:56 03:41:56 10.8 10.8 48 01:01:41
2 35.0 4:31:56 7:55:46 7:59:30 00:03:44 00:09:42 52 03:27:34 07:09:30 10.1 10.5 38 02:03:11
3 39.0 8:49:30 12:39:04 12:44:33 00:05:29 00:15:11 56 03:55:03 11:04:33 10.0 10.3 31 03:08:15
4 34.0 13:44:33 17:50:27 17:55:17 00:04:50 00:20:01 56 04:10:44 15:15:17 8.1 9.7 23 04:15:43
5 12.0 18:35:17 20:18:04 20:22:58 Avg: 00:05:00   48 01:42:47 16:58:04 7.0 9.4 19 05:16:04
Rider no: 420 Rider: Roy Barsby Horse: Dumaresq Desert Sky State / Country: NSW/AUS Lame L4
P/R 0.0 - - -     42            
1 40.0 - 2:54:10 3:01:36 00:07:26 00:07:26 56 03:01:36 03:01:36 13.2 13.2 14 00:21:21
2 35.0 3:51:36 6:26:16 6:35:48 00:09:32 00:16:58 44 02:44:12 05:45:48 12.8 13.0 15 00:39:29
3 39.0 7:25:48 10:25:23 10:36:46 00:11:23 00:28:21 56 03:10:58 08:56:46 12.3 12.7 14 01:00:28
4 34.0 11:36:46 15:34:32 15:48:30 00:13:58 00:42:19 52 04:11:44 13:08:30 8.1 11.3 14 02:08:56
Rider no: 135 Rider: Tamara Atkinson Horse: Mathoura McKinlay State / Country: VIC/AUS Lame L4
P/R 0.0 - - -     50            
1 40.0 - 2:56:05 3:02:49 00:06:44 00:06:44 45 03:02:49 03:02:49 13.1 13.1 16 00:22:34
2 35.0 3:52:49 6:48:15 6:58:11 00:09:56 00:16:40 56 03:05:22 06:08:11 11.3 12.2 22 01:01:52
3 39.0 7:48:11 11:21:02 11:30:36 00:09:34 00:26:14 53 03:42:25 09:50:36 10.5 11.6 22 01:54:18
4 34.0 12:30:36 16:17:22 16:26:35 00:09:13 00:35:27 54 03:55:59 13:46:35 8.6 10.7 17 02:47:01
Rider no: 39 Rider: Con Bouzianis Horse: Conderosa Pegasus State / Country: NSW/AUS Lame L4
P/R 0.0 - - -     48            
1 40.0 - 2:56:18 3:04:40 00:08:22 00:08:22 44 03:04:40 03:04:40 13.0 13.0 19 00:24:25
2 35.0 3:54:40 6:26:09 6:32:38 00:06:29 00:14:51 54 02:37:58 05:42:38 13.3 13.1 12 00:36:19
3 39.0 7:22:38 10:11:30 10:23:32 00:12:02 00:26:53 54 03:00:54 08:43:32 12.9 13.1 11 00:47:14
4 34.0 11:23:32 14:48:39 15:02:19 00:13:40 00:40:33 58 03:38:47 12:22:19 9.3 12.0 9 01:22:45
Rider no: 14 Rider: Bruce Moore Horse: Summer Park Douglas Explorer State / Country: NSW/AUS Lame L3
P/R 0.0 - - -     44            
1 40.0 - 2:47:00 2:52:06 00:05:06 00:05:06 60 02:52:06 02:52:06 13.9 13.9 7 00:11:51
2 35.0 3:42:06 6:11:01 6:17:33 00:06:32 00:11:38 60 02:35:27 05:27:33 13.5 13.7 5 00:21:14
3 39.0 7:07:33 10:06:58 10:17:00 00:10:02 00:21:40 52 03:09:27 08:37:00 12.4 13.2 7 00:40:42
Rider no: 89 Rider: Marita Rifai Horse: Tianna State / Country: NSW/AUS Lame L3
P/R 0.0 - - -     52            
1 40.0 - 3:31:48 3:44:00 00:12:12 00:12:12 44 03:44:00 03:44:00 10.7 10.7 51 01:03:45
2 35.0 4:34:00 7:49:25 8:02:57 00:13:32 00:25:44 48 03:28:57 07:12:57 10.1 10.4 42 02:06:38
3 39.0 8:52:57 12:58:29 13:16:45 00:18:16 00:44:00 52 04:23:48 11:36:45 8.9 9.8 38 03:40:27
Rider no: 108 Rider: Scott Davenport Horse: Alhambra Pierrot State / Country: NSW/AUS Lame L3
P/R 0.0 - - -     30            
1 40.0 - 2:59:19 3:06:57 00:07:38 00:07:38 48 03:06:57 03:06:57 12.8 12.8 25 00:26:42
2 35.0 3:56:57 6:34:17 6:44:00 00:09:43 00:17:21 44 02:47:03 05:54:00 12.6 12.7 20 00:47:41
3 39.0 7:34:00 10:25:20 10:35:31 00:10:11 00:27:32 48 03:01:31 08:55:31 12.9 12.8 13 00:59:13
Rider no: 196 Rider: Anthony Parker Horse: Webbs Creek Cattle Baron State / Country: NSW/AUS Gall or injury L3
P/R 0.0 - - -     36            
1 40.0 - 4:11:02 4:16:55 00:05:53 00:05:53 44 04:16:55 04:16:55 9.3 9.3 66 01:36:40
2 35.0 5:06:55 8:50:07 8:55:17 00:05:10 00:11:03 48 03:48:22 08:05:17 9.2 9.3 55 02:58:58
3 39.0 9:45:17 14:27:40 15:27:40 01:00:00 01:11:03 52 05:42:23 13:47:40 6.8 8.3 56 05:51:22
Rider no: 144 Rider: Stephanie Cooper Horse: Allanooka Shadene State / Country: SA/AUS Lame L3
P/R 0.0 - - -     39            
1 40.0 - 4:06:06 4:11:41 00:05:35 00:05:35 56 04:11:41 04:11:41 9.5 9.5 61 01:31:26
2 35.0 5:01:41 8:55:41 9:09:54 00:14:13 00:19:48 56 04:08:13 08:19:54 8.5 9.0 59 03:13:35
3 39.0 9:59:54 14:53:02 15:01:40 00:08:38 00:28:26 52 05:01:46 13:21:40 7.8 8.5 53 05:25:22
Rider no: 314 Rider: Vern Berry Horse: Matta Mia Dayimi State / Country: QLD/AUS Lame L3
P/R 0.0 - - -     47            
1 40.0 - 3:24:32 3:33:40 00:09:08 00:09:08 48 03:33:40 03:33:40 11.2 11.2 38 00:53:25
2 35.0 4:23:40 8:06:14 8:11:18 00:05:04 00:14:12 48 03:47:38 07:21:18 9.2 10.2 46 02:14:59
3 39.0 9:01:18 13:18:48 13:24:36 00:05:48 00:20:00 56 04:23:18 11:44:36 8.9 9.7 40 03:48:18
Rider no: 500 Rider: Jason Duff Horse: Karabil Niko State / Country: NSW/AUS Metabolics moderate L3
P/R 0.0 - - -     36            
1 40.0 - 3:02:29 3:08:47 00:06:18 00:06:18 60 03:08:47 03:08:47 12.7 12.7 26 00:28:32
2 35.0 3:58:47 7:01:06 7:15:11 00:14:05 00:20:23 56 03:16:24 06:25:11 10.7 11.7 25 01:18:52
3 39.0 8:05:11 11:37:10 11:49:19 00:12:09 00:32:32 56 03:44:08 10:09:19 10.4 11.2 23 02:13:01
Rider no: 416 Rider: Paul Lengronne Horse: Kalkadoon Alfresco State / Country: QLD/AUS Lame L3
P/R 0.0 - - -     38            
1 40.0 - 2:58:55 3:05:44 00:06:49 00:06:49 48 03:05:44 03:05:44 12.9 12.9 22 00:25:29
2 35.0 3:55:44 6:29:34 6:36:10 00:06:36 00:13:25 56 02:40:26 05:46:10 13.1 13.0 17 00:39:51
3 39.0 7:26:10 10:14:10 10:23:18 00:09:08 00:22:33 54 02:57:08 08:43:18 13.2 13.1 10 00:47:00
Rider no: 506 Rider: Keith Sumpner Horse: Fonda State / Country: NSW/AUS Lame L3
P/R 0.0 - - -     33            
1 40.0 - 3:30:39 3:35:10 00:04:31 00:04:31 56 03:35:10 03:35:10 11.2 11.2 40 00:54:55
2 35.0 4:25:10 7:55:50 8:15:47 00:19:57 00:24:28 49 03:50:37 07:25:47 9.1 10.1 48 02:19:28
3 39.0 9:05:47 13:28:42 13:39:19 00:10:37 00:35:05 48 04:33:32 11:59:19 8.6 9.5 46 04:03:01
Rider no: 505 Rider: Vanessa Smith Horse: Dunbraeton Narla State / Country: VIC/AUS Lame L3
P/R 0.0 - - -     32            
1 40.0 - 3:05:08 3:17:00 00:11:52 00:11:52 44 03:17:00 03:17:00 12.2 12.2 29 00:36:45
2 35.0 4:07:00 7:33:40 7:37:25 00:03:45 00:15:37 50 03:30:25 06:47:25 10.0 11.0 31 01:41:06
3 39.0 8:27:25 13:14:41 13:18:26 00:03:45 00:19:22 50 04:51:01 11:38:26 8.0 9.8 39 03:42:08
Rider no: 232 Rider: Stephen Brown Horse: Rebel State / Country: QLD/AUS Lame L3
P/R 0.0 - - -     52            
1 40.0 - 2:50:41 3:05:15 00:14:34 00:14:34 50 03:05:15 03:05:15 13.0 13.0 20 00:25:00
2 35.0 3:55:15 6:55:10 7:02:59 00:07:49 00:22:23 52 03:07:44 06:12:59 11.2 12.1 23 01:06:40
3 39.0 7:52:59 11:31:12 11:49:36 00:18:24 00:40:47 56 03:56:37 10:09:36 9.9 11.2 24 02:13:18
Rider no: 230 Rider: Dean Hodkinson Horse: Lydia Te State / Country: NSW/AUS Lame L3
P/R 0.0 - - -     28            
1 40.0 - 2:59:54 3:09:49 00:09:55 00:09:55 50 03:09:49 03:09:49 12.6 12.6 27 00:29:34
2 35.0 3:59:49 6:47:31 6:57:30 00:09:59 00:19:54 56 02:57:41 06:07:30 11.8 12.2 21 01:01:11
3 39.0 7:47:30 10:55:00 11:18:48 00:23:48 00:43:42 56 03:31:18 09:38:48 11.1 11.8 20 01:42:30
Rider no: 186 Rider: Jolene Cole Horse: Baribo State / Country: NSW/AUS Lame L2
P/R 0.0 - - -     40            
1 40.0 - 3:43:27 3:52:52 00:09:25 00:09:25 52 03:52:52 03:52:52 10.3 10.3 55 01:12:37
2 35.0 4:42:52 7:25:50 7:32:30 00:06:40 00:16:05 51 02:49:38 06:42:30 12.4 11.2 29 01:36:11
Rider no: 436 Rider: Ian Dreghorn Horse: Coolahlee Park Saraba State / Country: NSW/AUS Lame L2
P/R 0.0 - - -     44            
1 40.0 - 3:55:26 4:02:59 00:07:33 00:07:33 52 04:02:59 04:02:59 9.9 9.9 59 01:22:44
2 35.0 4:52:59 8:30:51 8:34:22 00:03:31 00:11:04 48 03:41:23 07:44:22 9.5 9.7 52 02:38:03
Rider no: 127 Rider: Greg Garred Horse: Shannonwood Sub State / Country: QLD/AUS Lame L2
P/R 0.0 - - -     36            
1 40.0 - 3:31:28 3:38:51 00:07:23 00:07:23 40 03:38:51 03:38:51 11.0 11.0 45 00:58:36
2 35.0 4:28:51 7:50:17 8:00:25 00:10:08 00:17:31 54 03:31:34 07:10:25 9.9 10.5 40 02:04:06
Rider no: 139 Rider: Gregg Fields Horse: Dunwingeri Jasim State / Country: QLD/AUS Lame L2
P/R 0.0 - - -     30            
1 40.0 - 3:22:00 3:30:36 00:08:36 00:08:36 48 03:30:36 03:30:36 11.4 11.4 36 00:50:21
2 35.0 4:20:36 7:32:00 7:39:00 00:07:00 00:15:36 52 03:18:24 06:49:00 10.6 11.0 33 01:42:41
Rider no: 84 Rider: Denis Sugars Horse: Devious Hot Rod State / Country: SA/AUS Lame L2
P/R 0.0 - - -     40            
1 40.0 - 4:05:56 4:16:50 00:10:54 00:10:54 36 04:16:50 04:16:50 9.3 9.3 65 01:36:35
2 35.0 5:06:50 8:55:33 9:03:40 00:08:07 00:19:01 52 03:56:50 08:13:40 8.9 9.1 56 03:07:21
Rider no: 47 Rider: Helen Astell Horse: Shemali Silver Sherif State / Country: TAS/AUS Lame L2
P/R 0.0 - - -     32            
1 40.0 - 2:59:14 3:01:26 00:02:12 00:02:12 53 03:01:26 03:01:26 13.2 13.2 13 00:21:11
2 35.0 3:51:26 6:23:16 6:25:47 00:02:31 00:04:43 58 02:34:21 05:35:47 13.6 13.4 7 00:29:28
Rider no: 65 Rider: Mark Dunn Horse: Bella State / Country: TAS/AUS Lame L1
P/R 0.0 - - -     40            
1 40.0 - 3:54:30 4:08:15 00:13:45 00:13:45 48 04:08:15 04:08:15 9.7 9.7 60 01:28:00
Rider no: 91 Rider: Dennis Moore Horse: Boss State / Country: VIC/AUS Widthdrawn L1
P/R 0.0 - - -     34            
1 40.0 - 3:40:00 3:40:00 00:00:00 00:00:00 44 03:40:00 03:40:00 10.9 10.9 47 00:59:45
Rider no: 105 Rider: Thomas Hermann Horse: TTH Headliner State / Country: NSW/AUS Lame L1
P/R 0.0 - - -     34            
1 40.0 - 2:51:14 2:56:12 00:04:58 00:04:58 56 02:56:12 02:56:12 13.6 13.6 10 00:15:57
Rider no: 128 Rider: Jaime-Maree Mansbridge Horse: Lea Ma Park La Gold State / Country: QLD/AUS Heart Rate L1
P/R 0.0 - - -     34            
1 40.0 - 3:31:26 3:42:28 00:11:02 00:11:02 70 03:42:28 03:42:28 10.8 10.8 49 01:02:13
Rider no: 321 Rider: Jessica Dastani Horse: Cocoa Ace of Swords State / Country: NSW/AUS Lame L1
P/R 0.0 - - -     44            
1 40.0 - 3:17:40 3:21:03 00:03:23 00:03:23 60 03:21:03 03:21:03 11.9 11.9 30 00:40:48
Rider no: 142 Rider: Paula Van Eck Horse: Pyrenees Impala State / Country: SA/AUS Lame L1
P/R 0.0 - - -     28            
1 40.0 - 3:36:21 3:39:42 00:03:21 00:03:21 32 03:39:42 03:39:42 10.9 10.9 46 00:59:27
Rider no: 150 Rider: Peter Bonham Horse: Box Hill Ralph State / Country: NSW/AUS Lame L1
P/R 0.0 - - -     40